ARG1975 SABE-SUMU
Flight info
| Callsign | ARG1975 |
|---|---|
| Flight time | 0h 26m |
| Altitude | 17000 |
| Route | DORVO A305 TOKAM |
| Aircraft | B738/M-SDE2E3FGHIRWXY/LB1 |
Departure
| Time | 2026-04-26 02:53 |
|---|---|
| Airport | Aeroparque Jorge Newbery (SABE) |
Arrival
| Time | 2026-04-26 03:20 |
|---|---|
| Airport | Carrasco General Cesáreo L. Berisso International Airport (SUMU) |
| Time | Latitude | Longitude | Altitude | Speed | Heading |
|---|---|---|---|---|---|
| 2026-04-26 02:26 | -34.55697 | -58.41444 | 29 ft | 0 kts | 18° |
| 2026-04-26 02:46 | -34.55707 | -58.41448 | 29 ft | 4 kts | 12° |
| 2026-04-26 02:46 | -34.55733 | -58.41449 | 29 ft | 4 kts | 341° |
| 2026-04-26 02:46 | -34.55754 | -58.41433 | 30 ft | 4 kts | 306° |
| 2026-04-26 02:46 | -34.55757 | -58.41428 | 24 ft | 0 kts | 303° |
| 2026-04-26 02:48 | -34.55754 | -58.41434 | 24 ft | 3 kts | 303° |
| 2026-04-26 02:48 | -34.55735 | -58.41471 | 26 ft | 6 kts | 296° |
| 2026-04-26 02:49 | -34.55721 | -58.41525 | 27 ft | 7 kts | 275° |
| 2026-04-26 02:49 | -34.55749 | -58.41571 | 27 ft | 8 kts | 215° |
| 2026-04-26 02:49 | -34.55783 | -58.41621 | 24 ft | 8 kts | 261° |
| 2026-04-26 02:49 | -34.55764 | -58.41686 | 29 ft | 9 kts | 296° |
| 2026-04-26 02:50 | -34.55734 | -58.41755 | 24 ft | 10 kts | 300° |
| 2026-04-26 02:50 | -34.55695 | -58.41829 | 26 ft | 11 kts | 304° |
| 2026-04-26 02:50 | -34.55651 | -58.41907 | 26 ft | 12 kts | 304° |
| 2026-04-26 02:50 | -34.55604 | -58.41993 | 28 ft | 13 kts | 303° |
| 2026-04-26 02:51 | -34.55551 | -58.42083 | 28 ft | 14 kts | 306° |
| 2026-04-26 02:51 | -34.55492 | -58.42178 | 28 ft | 14 kts | 307° |
| 2026-04-26 02:51 | -34.55430 | -58.42278 | 28 ft | 15 kts | 307° |
| 2026-04-26 02:51 | -34.55376 | -58.42370 | 24 ft | 13 kts | 297° |
| 2026-04-26 02:52 | -34.55363 | -58.42473 | 24 ft | 11 kts | 256° |
| 2026-04-26 02:52 | -34.55413 | -58.42496 | 27 ft | 8 kts | 133° |
| 2026-04-26 02:52 | -34.55426 | -58.42473 | 25 ft | 0 kts | 123° |
| 2026-04-26 02:52 | -34.55427 | -58.42471 | 25 ft | 0 kts | 123° |
| 2026-04-26 02:53 | -34.55468 | -58.42396 | 29 ft | 47 kts | 124° |
| 2026-04-26 02:53 | -34.55837 | -58.41735 | 27 ft | 138 kts | 124° |
| 2026-04-26 02:53 | -34.56428 | -58.40657 | 762 ft | 145 kts | 123° |
| 2026-04-26 02:53 | -34.56916 | -58.39729 | 2089 ft | 121 kts | 117° |
| 2026-04-26 02:54 | -34.57238 | -58.38715 | 2760 ft | 145 kts | 105° |
| 2026-04-26 02:54 | -34.57542 | -58.37369 | 3212 ft | 182 kts | 104° |
| 2026-04-26 02:54 | -34.57825 | -58.35860 | 4234 ft | 184 kts | 101° |
| 2026-04-26 02:54 | -34.58092 | -58.34259 | 4955 ft | 211 kts | 102° |
| 2026-04-26 02:55 | -34.58404 | -58.32371 | 5232 ft | 244 kts | 102° |
| 2026-04-26 02:55 | -34.58753 | -58.30258 | 5624 ft | 269 kts | 102° |
| 2026-04-26 02:55 | -34.59133 | -58.27963 | 6365 ft | 282 kts | 102° |
| 2026-04-26 02:55 | -34.59521 | -58.25617 | 7532 ft | 285 kts | 102° |
| 2026-04-26 02:56 | -34.59915 | -58.23237 | 8639 ft | 290 kts | 102° |
| 2026-04-26 02:56 | -34.60317 | -58.20813 | 9664 ft | 297 kts | 102° |
| 2026-04-26 02:56 | -34.60733 | -58.18307 | 10524 ft | 312 kts | 102° |
| 2026-04-26 02:56 | -34.61184 | -58.15599 | 10813 ft | 344 kts | 102° |
| 2026-04-26 02:57 | -34.61661 | -58.12727 | 11496 ft | 358 kts | 102° |
| 2026-04-26 02:57 | -34.62157 | -58.09729 | 12386 ft | 366 kts | 102° |
| 2026-04-26 02:57 | -34.62662 | -58.06667 | 13343 ft | 373 kts | 102° |
| 2026-04-26 02:57 | -34.63175 | -58.03549 | 14336 ft | 379 kts | 102° |
| 2026-04-26 02:58 | -34.63695 | -58.00389 | 15325 ft | 385 kts | 102° |
| 2026-04-26 02:58 | -34.64225 | -57.97170 | 16236 ft | 392 kts | 102° |
| 2026-04-26 02:58 | -34.64763 | -57.93879 | 16746 ft | 398 kts | 102° |
| 2026-04-26 02:58 | -34.65306 | -57.90566 | 16949 ft | 404 kts | 102° |
| 2026-04-26 02:59 | -34.65860 | -57.87187 | 16960 ft | 411 kts | 102° |
| 2026-04-26 02:59 | -34.66419 | -57.83801 | 16964 ft | 409 kts | 102° |
| 2026-04-26 02:59 | -34.66972 | -57.80412 | 16964 ft | 408 kts | 102° |
| 2026-04-26 02:59 | -34.67515 | -57.77030 | 16950 ft | 408 kts | 102° |
| 2026-04-26 03:00 | -34.68061 | -57.73652 | 16941 ft | 407 kts | 102° |
| 2026-04-26 03:00 | -34.68605 | -57.70287 | 16947 ft | 406 kts | 102° |
| 2026-04-26 03:00 | -34.69149 | -57.66910 | 16952 ft | 408 kts | 102° |
| 2026-04-26 03:00 | -34.69691 | -57.63579 | 16963 ft | 407 kts | 102° |
| 2026-04-26 03:01 | -34.70235 | -57.60199 | 16950 ft | 408 kts | 102° |
| 2026-04-26 03:01 | -34.70780 | -57.56813 | 16948 ft | 408 kts | 102° |
| 2026-04-26 03:01 | -34.71324 | -57.53426 | 16950 ft | 408 kts | 102° |
| 2026-04-26 03:01 | -34.71924 | -57.50058 | 16955 ft | 405 kts | 105° |
| 2026-04-26 03:02 | -34.72650 | -57.46810 | 16888 ft | 391 kts | 107° |
| 2026-04-26 03:02 | -34.73414 | -57.43656 | 16581 ft | 385 kts | 108° |
| 2026-04-26 03:02 | -34.74183 | -57.40559 | 16207 ft | 381 kts | 108° |
| 2026-04-26 03:02 | -34.74938 | -57.37498 | 15799 ft | 374 kts | 108° |
| 2026-04-26 03:03 | -34.75673 | -57.34485 | 15410 ft | 369 kts | 108° |
| 2026-04-26 03:03 | -34.76388 | -57.31509 | 15002 ft | 365 kts | 108° |
| 2026-04-26 03:03 | -34.77095 | -57.28569 | 14606 ft | 359 kts | 108° |
| 2026-04-26 03:03 | -34.77800 | -57.25673 | 14213 ft | 354 kts | 108° |
| 2026-04-26 03:04 | -34.78464 | -57.22842 | 13824 ft | 350 kts | 107° |
| 2026-04-26 03:04 | -34.79117 | -57.20013 | 13437 ft | 346 kts | 107° |
| 2026-04-26 03:04 | -34.79776 | -57.17219 | 13060 ft | 342 kts | 107° |
| 2026-04-26 03:04 | -34.80432 | -57.14452 | 12685 ft | 340 kts | 108° |
| 2026-04-26 03:05 | -34.81090 | -57.11676 | 12303 ft | 342 kts | 108° |
| 2026-04-26 03:05 | -34.81750 | -57.08886 | 11921 ft | 345 kts | 107° |
| 2026-04-26 03:05 | -34.82417 | -57.06061 | 11526 ft | 349 kts | 107° |
| 2026-04-26 03:05 | -34.83082 | -57.03234 | 11125 ft | 345 kts | 107° |
| 2026-04-26 03:06 | -34.83736 | -57.00442 | 10728 ft | 340 kts | 107° |
| 2026-04-26 03:06 | -34.84378 | -56.97703 | 10443 ft | 331 kts | 107° |
| 2026-04-26 03:06 | -34.84997 | -56.95057 | 10296 ft | 319 kts | 107° |
| 2026-04-26 03:06 | -34.85593 | -56.92503 | 10167 ft | 308 kts | 107° |
| 2026-04-26 03:07 | -34.86169 | -56.90035 | 10040 ft | 298 kts | 107° |
| 2026-04-26 03:07 | -34.86724 | -56.87653 | 9906 ft | 289 kts | 107° |
| 2026-04-26 03:07 | -34.87270 | -56.85310 | 9639 ft | 287 kts | 107° |
| 2026-04-26 03:07 | -34.87845 | -56.82992 | 9378 ft | 285 kts | 108° |
| 2026-04-26 03:08 | -34.88388 | -56.80677 | 9094 ft | 283 kts | 107° |
| 2026-04-26 03:08 | -34.88912 | -56.78377 | 8823 ft | 280 kts | 107° |
| 2026-04-26 03:08 | -34.89425 | -56.76131 | 8550 ft | 277 kts | 107° |
| 2026-04-26 03:08 | -34.89940 | -56.73883 | 8295 ft | 274 kts | 107° |
| 2026-04-26 03:09 | -34.90452 | -56.71656 | 8026 ft | 272 kts | 107° |
| 2026-04-26 03:09 | -34.90961 | -56.69446 | 7759 ft | 270 kts | 107° |
| 2026-04-26 03:09 | -34.91466 | -56.67253 | 7492 ft | 268 kts | 106° |
| 2026-04-26 03:09 | -34.91968 | -56.65079 | 7230 ft | 266 kts | 106° |
| 2026-04-26 03:10 | -34.92466 | -56.62917 | 6964 ft | 264 kts | 106° |
| 2026-04-26 03:10 | -34.92961 | -56.60773 | 6702 ft | 262 kts | 106° |
| 2026-04-26 03:10 | -34.93452 | -56.58641 | 6438 ft | 260 kts | 106° |
| 2026-04-26 03:10 | -34.93939 | -56.56522 | 6179 ft | 259 kts | 106° |
| 2026-04-26 03:11 | -34.94424 | -56.54412 | 5916 ft | 257 kts | 106° |
| 2026-04-26 03:11 | -34.94905 | -56.52322 | 5659 ft | 255 kts | 106° |
| 2026-04-26 03:11 | -34.95382 | -56.50243 | 5394 ft | 254 kts | 106° |
| 2026-04-26 03:11 | -34.95856 | -56.48180 | 5146 ft | 252 kts | 105° |
| 2026-04-26 03:12 | -34.96325 | -56.46131 | 4892 ft | 250 kts | 105° |
| 2026-04-26 03:12 | -34.96792 | -56.44095 | 4637 ft | 249 kts | 105° |
| 2026-04-26 03:12 | -34.97247 | -56.42102 | 4392 ft | 246 kts | 105° |
| 2026-04-26 03:12 | -34.97706 | -56.40097 | 4142 ft | 245 kts | 105° |
| 2026-04-26 03:13 | -34.98162 | -56.38103 | 3890 ft | 243 kts | 105° |
| 2026-04-26 03:13 | -34.98615 | -56.36124 | 3636 ft | 241 kts | 105° |
| 2026-04-26 03:13 | -34.99062 | -56.34165 | 3415 ft | 238 kts | 105° |
| 2026-04-26 03:13 | -34.99509 | -56.32204 | 3188 ft | 243 kts | 105° |
| 2026-04-26 03:14 | -34.99781 | -56.30147 | 3036 ft | 249 kts | 83° |
| 2026-04-26 03:14 | -34.99142 | -56.28209 | 3022 ft | 248 kts | 55° |
| 2026-04-26 03:14 | -34.98129 | -56.26544 | 3000 ft | 240 kts | 53° |
| 2026-04-26 03:14 | -34.97174 | -56.24961 | 3010 ft | 223 kts | 54° |
| 2026-04-26 03:15 | -34.96298 | -56.23508 | 2996 ft | 202 kts | 54° |
| 2026-04-26 03:15 | -34.95495 | -56.22189 | 2978 ft | 185 kts | 54° |
| 2026-04-26 03:15 | -34.94733 | -56.20940 | 2989 ft | 184 kts | 53° |
| 2026-04-26 03:15 | -34.93986 | -56.19715 | 2985 ft | 175 kts | 52° |
| 2026-04-26 03:16 | -34.93271 | -56.18548 | 2980 ft | 170 kts | 51° |
| 2026-04-26 03:16 | -34.92549 | -56.17374 | 2813 ft | 175 kts | 51° |
| 2026-04-26 03:16 | -34.91820 | -56.16172 | 2580 ft | 177 kts | 52° |
| 2026-04-26 03:16 | -34.91097 | -56.14985 | 2337 ft | 169 kts | 52° |
| 2026-04-26 03:17 | -34.90433 | -56.13896 | 2147 ft | 155 kts | 52° |
| 2026-04-26 03:17 | -34.89812 | -56.12878 | 1939 ft | 146 kts | 51° |
| 2026-04-26 03:17 | -34.89216 | -56.11902 | 1743 ft | 142 kts | 52° |
| 2026-04-26 03:17 | -34.88623 | -56.10930 | 1558 ft | 143 kts | 52° |
| 2026-04-26 03:18 | -34.88029 | -56.09956 | 1370 ft | 143 kts | 52° |
| 2026-04-26 03:18 | -34.87437 | -56.08985 | 1173 ft | 142 kts | 53° |
| 2026-04-26 03:18 | -34.86848 | -56.08019 | 987 ft | 142 kts | 52° |
| 2026-04-26 03:18 | -34.86258 | -56.07051 | 807 ft | 143 kts | 52° |
| 2026-04-26 03:19 | -34.85653 | -56.06070 | 568 ft | 147 kts | 53° |
| 2026-04-26 03:19 | -34.85054 | -56.05086 | 367 ft | 142 kts | 52° |
| 2026-04-26 03:19 | -34.84486 | -56.04146 | 156 ft | 134 kts | 52° |
| 2026-04-26 03:19 | -34.83961 | -56.03287 | 67 ft | 112 kts | 53° |
| 2026-04-26 03:20 | -34.83625 | -56.02732 | 86 ft | 51 kts | 53° |
| 2026-04-26 03:20 | -34.83418 | -56.02393 | 88 ft | 49 kts | 54° |
| 2026-04-26 03:20 | -34.83260 | -56.02134 | 81 ft | 27 kts | 53° |
| 2026-04-26 03:20 | -34.83210 | -56.01987 | 81 ft | 14 kts | 112° |
| 2026-04-26 03:21 | -34.83268 | -56.01921 | 80 ft | 9 kts | 144° |
| 2026-04-26 03:21 | -34.83316 | -56.01879 | 82 ft | 8 kts | 145° |
| 2026-04-26 03:21 | -34.83370 | -56.01834 | 74 ft | 12 kts | 145° |
| 2026-04-26 03:21 | -34.83445 | -56.01765 | 73 ft | 13 kts | 142° |
| 2026-04-26 03:22 | -34.83488 | -56.01703 | 66 ft | 10 kts | 132° |
| 2026-04-26 03:22 | -34.83535 | -56.01658 | 73 ft | 6 kts | 144° |
| 2026-04-26 03:22 | -34.83546 | -56.01649 | 73 ft | 0 kts | 144° |